Time;durP1;ratioP1;P1;durP2;ratioP2;P2;SDS_P1;SDS_P2;PMS_P1;PMS_P2;Temp;Humidity;BMP_temperature;BMP_pressure;BME280_temperature;BME280_humidity;BME280_pressure;Samples;Min_cycle;Max_cycle;Signal;HPM_P1;HPM_P2
2021/03/14 07:02:31;;;;;;;6.92;3.20;;;;;;;5.33;71.73;98642.80;1824739;76;27253;-60
2021/03/14 07:05:01;;;;;;;6.15;2.77;;;;;;;5.48;69.73;98659.52;1829224;77;25437;-58
2021/03/14 07:07:41;;;;;;;4.60;2.75;;;;;;;5.57;69.42;98665.69;1848655;77;25409;-59
2021/03/14 07:10:12;;;;;;;5.37;3.17;;;;;;;5.59;69.59;98664.26;1847740;77;25483;-59
2021/03/14 07:12:43;;;;;;;6.03;3.15;;;;;;;5.65;69.29;98668.13;1840005;77;25485;-58
2021/03/14 07:15:14;;;;;;;5.00;2.92;;;;;;;5.71;69.54;98668.22;1841697;77;27766;-59
2021/03/14 07:17:43;;;;;;;5.20;2.83;;;;;;;5.83;68.86;98656.28;1841187;77;25467;-59
2021/03/14 07:20:17;;;;;;;4.50;2.87;;;;;;;5.93;68.57;98649.25;1813570;78;25227;-59
2021/03/14 07:23:03;;;;;;;5.12;2.80;;;;;;;6.11;68.38;98657.30;1826590;78;25487;-59
2021/03/14 07:25:32;;;;;;;4.97;3.27;;;;;;;6.19;67.80;98643.07;1821999;78;25497;-59
2021/03/14 07:27:59;;;;;;;5.62;3.02;;;;;;;6.29;67.66;98644.07;1809568;77;26271;-59
2021/03/14 07:30:29;;;;;;;4.62;2.90;;;;;;;6.40;67.20;98636.45;1815717;78;25490;-59
2021/03/14 07:32:56;;;;;;;6.10;2.52;;;;;;;6.51;66.62;98643.62;1815696;77;25515;-58
2021/03/14 07:35:24;;;;;;;4.90;2.50;;;;;;;6.72;64.85;98661.95;1814869;77;25651;-59
2021/03/14 07:37:54;;;;;;;6.65;2.45;;;;;;;6.88;65.72;98658.72;1818089;77;25529;-58
2021/03/14 07:40:24;;;;;;;9.60;2.52;;;;;;;6.99;64.04;98662.59;1817816;78;25697;-59
2021/03/14 07:43:02;;;;;;;4.22;2.35;;;;;;;7.04;64.66;98650.31;1832735;78;25732;-59
2021/03/14 07:45:31;;;;;;;6.90;2.40;;;;;;;7.17;63.73;98655.23;1794398;78;25456;-57
2021/03/14 07:48:03;;;;;;;5.22;2.20;;;;;;;7.26;63.36;98645.19;1814726;77;25687;-60
2021/03/14 07:50:44;;;;;;;5.55;2.50;;;;;;;7.41;62.52;98647.87;1803216;77;25534;-60
2021/03/14 07:53:16;;;;;;;3.58;2.37;;;;;;;8.06;61.52;98653.43;1848629;77;26071;-60
2021/03/14 07:55:48;;;;;;;5.92;2.35;;;;;;;8.80;59.81;98653.00;1820747;78;25469;-60
2021/03/14 07:58:14;;;;;;;6.45;2.40;;;;;;;9.46;56.84;98672.74;1879758;76;25623;-60
2021/03/14 08:00:43;;;;;;;4.85;2.33;;;;;;;9.99;57.43;98676.73;1876591;76;25467;-59
2021/03/14 08:03:10;;;;;;;5.20;2.20;;;;;;;10.67;56.65;98650.72;1879898;76;25555;-59
2021/03/14 08:05:43;;;;;;;4.35;1.95;;;;;;;11.38;52.41;98659.11;1879909;76;25720;-58
2021/03/14 08:08:27;;;;;;;4.70;1.80;;;;;;;11.69;49.97;98657.43;1871525;76;25516;-59
2021/03/14 08:10:55;;;;;;;4.17;1.90;;;;;;;11.78;51.59;98668.05;1853020;76;25554;-58
2021/03/14 08:13:54;;;;;;;4.62;1.70;;;;;;;11.65;50.18;98658.52;1843647;76;25467;-60
2021/03/14 08:16:21;;;;;;;5.42;2.05;;;;;;;11.59;48.69;98644.45;1719820;81;26642;-60
2021/03/14 08:18:51;;;;;;;5.30;1.85;;;;;;;11.33;47.52;98658.03;1694410;84;26273;-60
2021/03/14 08:21:31;;;;;;;5.20;2.20;;;;;;;11.13;50.22;98661.84;1885087;75;35128;-59
2021/03/14 08:23:59;;;;;;;4.12;2.10;;;;;;;11.01;51.51;98632.97;1858208;77;25572;-59
2021/03/14 08:26:32;;;;;;;4.25;1.95;;;;;;;11.20;51.45;98642.50;1853875;77;25678;-59
2021/03/14 08:29:04;;;;;;;4.72;2.35;;;;;;;11.31;50.42;98623.77;1849697;77;25595;-59
2021/03/14 08:32:08;;;;;;;5.72;2.90;;;;;;;11.32;48.67;98621.84;1852500;77;25509;-58
2021/03/14 08:34:45;;;;;;;4.10;2.22;;;;;;;11.24;49.11;98621.47;1775410;80;25643;-59
2021/03/14 08:37:27;;;;;;;5.75;2.00;;;;;;;11.32;49.50;98624.55;1791760;80;25559;-58
2021/03/14 08:40:12;;;;;;;3.20;1.90;;;;;;;11.51;50.23;98630.00;1791315;80;26679;-58
2021/03/14 08:42:56;;;;;;;3.60;1.90;;;;;;;11.61;48.79;98625.14;1791490;80;25627;-59
2021/03/14 08:45:26;;;;;;;2.30;1.60;;;;;;;11.63;46.32;98636.40;1791724;80;25650;-58
2021/03/14 08:47:53;;;;;;;5.45;2.42;;;;;;;11.40;49.49;98618.16;1791559;79;25592;-58
2021/03/14 08:50:22;;;;;;;4.25;1.92;;;;;;;11.48;46.53;98619.10;1791434;80;25689;-58
2021/03/14 08:52:49;;;;;;;2.67;1.92;;;;;;;11.26;48.63;98627.34;1785542;80;25897;-58
2021/03/14 08:55:15;;;;;;;2.55;1.67;;;;;;;11.31;46.85;98633.83;1774375;80;25985;-58
2021/03/14 08:57:42;;;;;;;11.18;2.50;;;;;;;11.21;46.48;98641.34;1770481;81;25657;-58
2021/03/14 09:00:13;;;;;;;4.42;2.20;;;;;;;11.07;47.90;98654.56;1769631;81;25637;-57
2021/03/14 09:02:39;;;;;;;4.83;1.80;;;;;;;11.07;48.79;98643.74;1771176;81;25392;-58
2021/03/14 09:05:14;;;;;;;5.05;1.85;;;;;;;11.19;46.75;98663.14;1773204;80;25940;-58
2021/03/14 09:07:43;;;;;;;6.08;2.17;;;;;;;11.14;46.74;98662.06;1782749;76;26114;-58
2021/03/14 09:10:13;;;;;;;5.37;1.95;;;;;;;10.94;45.63;98636.29;1846218;75;25774;-57
2021/03/14 09:12:41;;;;;;;4.53;2.10;;;;;;;10.74;46.44;98660.34;1838226;76;26267;-58
2021/03/14 09:15:11;;;;;;;4.83;2.20;;;;;;;10.53;47.67;98662.74;1853722;75;25595;-56
2021/03/14 09:17:40;;;;;;;6.75;2.33;;;;;;;10.43;47.63;98674.84;1846596;77;26597;-57
2021/03/14 09:20:10;;;;;;;5.00;1.82;;;;;;;10.48;46.70;98693.31;1816664;78;32913;-58
2021/03/14 09:22:37;;;;;;;;;;;;;;;10.43;47.63;98666.73;1803923;79;25493;-58
2021/03/14 09:25:08;;;;;;;4.20;2.55;;;;;;;10.39;47.68;98677.27;1801049;79;25526;-58
2021/03/14 09:27:39;;;;;;;5.65;2.35;;;;;;;10.31;48.09;98669.49;1801214;79;25512;-56
2021/03/14 09:30:19;;;;;;;2.30;1.85;;;;;;;10.43;48.84;98670.80;1800811;79;25779;-57
2021/03/14 09:32:51;;;;;;;3.95;2.25;;;;;;;10.46;46.83;98679.56;1800513;79;25524;-58
2021/03/14 09:35:37;;;;;;;8.50;2.27;;;;;;;10.41;48.42;98686.58;1824115;77;25319;-59
2021/03/14 09:38:10;;;;;;;5.92;2.27;;;;;;;10.35;48.87;98675.02;1849038;77;25501;-57
2021/03/14 09:40:44;;;;;;;6.78;2.58;;;;;;;10.35;47.68;98689.87;1863335;76;25485;-57
2021/03/14 09:43:19;;;;;;;5.55;2.83;;;;;;;10.23;47.92;98693.40;1797492;79;25723;-56
2021/03/14 09:45:51;;;;;;;7.10;2.45;;;;;;;10.04;49.00;98693.48;1822440;78;25690;-58
2021/03/14 09:48:22;;;;;;;4.05;2.30;;;;;;;9.90;49.30;98699.27;1797423;79;25507;-57
2021/03/14 09:50:59;;;;;;;6.58;2.22;;;;;;;9.83;49.15;98693.67;1823582;78;25627;-58
2021/03/14 09:53:37;;;;;;;2.95;1.77;;;;;;;9.78;49.17;98688.52;1823857;78;25513;-58
2021/03/14 09:56:14;;;;;;;5.37;2.40;;;;;;;9.89;48.44;98711.22;1872225;76;35913;-56
2021/03/14 09:58:41;;;;;;;3.10;1.65;;;;;;;10.08;48.20;98701.70;1859301;77;25521;-57
2021/03/14 10:01:13;;;;;;;3.47;1.92;;;;;;;10.24;46.13;98695.76;1859069;77;25761;-57
2021/03/14 10:03:37;;;;;;;5.05;2.25;;;;;;;10.36;45.94;98711.16;1858280;77;25697;-57
2021/03/14 10:06:06;;;;;;;3.17;1.70;;;;;;;10.26;45.49;98709.70;1859301;77;25586;-58
2021/03/14 10:08:36;;;;;;;2.45;1.72;;;;;;;10.07;44.01;98698.77;1854600;76;25726;-56
2021/03/14 10:11:13;;;;;;;3.37;1.90;;;;;;;9.87;44.93;98709.41;1856552;77;25604;-57
2021/03/14 10:13:45;;;;;;;2.83;1.87;;;;;;;9.65;44.39;98705.33;1855368;76;25672;-59
2021/03/14 10:16:15;;;;;;;3.37;2.30;;;;;;;9.47;46.42;98712.11;1777618;80;25547;-57
2021/03/14 10:18:43;;;;;;;2.90;1.72;;;;;;;9.34;46.46;98712.10;1788903;79;26376;-57
2021/03/14 10:21:26;;;;;;;4.03;2.12;;;;;;;9.29;46.69;98702.89;1801367;79;25770;-58
2021/03/14 10:24:18;;;;;;;4.75;1.77;;;;;;;9.30;47.03;98701.77;1786124;79;25887;-58
2021/03/14 10:27:03;;;;;;;2.52;1.77;;;;;;;9.28;45.82;98701.33;1799320;79;28066;-58
2021/03/14 10:29:33;;;;;;;7.95;2.10;;;;;;;10.10;44.43;98721.83;1801556;79;26162;-59
2021/03/14 10:32:01;;;;;;;4.90;1.80;;;;;;;10.77;44.73;98701.57;1801355;79;25587;-58
2021/03/14 10:34:28;;;;;;;5.90;2.12;;;;;;;10.72;45.12;98719.41;1798840;79;25597;-59
2021/03/14 10:36:56;;;;;;;2.95;2.02;;;;;;;10.59;44.48;98715.98;1785207;79;25469;-59
2021/03/14 10:39:30;;;;;;;13.62;1.92;;;;;;;10.38;44.89;98725.68;1785357;79;25935;-58
2021/03/14 10:41:57;;;;;;;5.42;2.00;;;;;;;10.20;45.84;98724.61;1777302;79;25268;-58
2021/03/14 10:44:26;;;;;;;3.22;1.82;;;;;;;10.00;46.07;98723.67;1800765;79;25550;-57
2021/03/14 10:46:55;;;;;;;2.37;1.60;;;;;;;9.85;46.02;98728.44;1802288;79;25574;-58
2021/03/14 10:49:29;;;;;;;6.15;2.02;;;;;;;9.69;47.28;98729.73;1798800;79;25360;-58
2021/03/14 10:51:58;;;;;;;5.80;3.08;;;;;;;9.62;46.93;98726.80;1770318;81;26818;-59
2021/03/14 10:54:36;;;;;;;3.67;2.40;;;;;;;9.52;47.94;98726.72;1829195;78;25555;-58
2021/03/14 10:57:15;;;;;;;9.03;2.58;;;;;;;9.45;48.15;98730.53;1807618;78;25581;-59
2021/03/14 10:59:41;;;;;;;4.90;2.13;;;;;;;9.35;48.59;98733.92;1791042;78;25523;-58
2021/03/14 11:02:22;;;;;;;5.15;2.10;;;;;;;9.27;48.59;98744.27;1791726;78;25686;-59
2021/03/14 11:04:59;;;;;;;4.80;2.50;;;;;;;9.20;48.04;98740.00;1777375;79;25772;-59
2021/03/14 11:07:30;;;;;;;5.05;2.35;;;;;;;9.08;48.56;98742.13;1770504;79;25538;-59
2021/03/14 11:10:17;;;;;;;3.75;2.27;;;;;;;8.99;49.27;98753.59;1769326;81;25610;-59
2021/03/14 11:12:50;;;;;;;4.72;2.60;;;;;;;8.95;48.91;98744.59;1769272;81;25238;-59
2021/03/14 11:15:32;;;;;;;4.78;2.47;;;;;;;8.83;48.62;98748.05;1768982;81;25602;-58
2021/03/14 11:18:04;;;;;;;3.27;1.77;;;;;;;8.75;48.97;98750.28;1769277;81;26657;-58
2021/03/14 11:20:33;;;;;;;6.37;2.80;;;;;;;8.66;49.34;98761.16;1768914;81;25659;-57
2021/03/14 11:23:00;;;;;;;3.85;2.47;;;;;;;8.65;49.85;98766.34;1769411;81;25556;-58
2021/03/14 11:25:28;;;;;;;7.45;2.62;;;;;;;8.65;49.80;98774.97;1783552;79;25654;-56
2021/03/14 11:27:57;;;;;;;7.12;3.00;;;;;;;8.94;50.05;98769.42;1800657;79;25539;-57
2021/03/14 11:30:27;;;;;;;4.92;2.60;;;;;;;10.08;50.49;98763.27;1800990;79;25719;-57
2021/03/14 11:32:54;;;;;;;6.53;2.90;;;;;;;10.95;47.54;98771.78;1800646;79;25631;-58
2021/03/14 11:35:21;;;;;;;4.25;2.85;;;;;;;11.13;46.37;98745.14;1800272;79;25565;-56
2021/03/14 11:37:48;;;;;;;5.67;2.50;;;;;;;11.03;46.50;98765.42;1800685;79;25580;-56
2021/03/14 11:40:14;;;;;;;4.75;2.55;;;;;;;10.84;46.74;98766.66;1800935;79;25519;-57
2021/03/14 11:42:42;;;;;;;4.87;2.70;;;;;;;10.74;47.20;98803.67;1788633;79;25780;-58
2021/03/14 11:45:11;;;;;;;5.58;2.92;;;;;;;10.69;46.93;98776.88;1787973;80;25325;-58
2021/03/14 11:47:38;;;;;;;5.30;2.50;;;;;;;10.62;47.63;98779.64;1787940;80;31670;-58
2021/03/14 11:50:07;;;;;;;4.65;2.75;;;;;;;10.60;47.36;98773.77;1787705;80;25525;-57
2021/03/14 11:52:34;;;;;;;8.98;2.72;;;;;;;10.39;46.29;98792.13;1788084;80;25354;-57
2021/03/14 11:55:01;;;;;;;5.92;2.30;;;;;;;10.08;46.25;98803.79;1788589;80;26110;-57
2021/03/14 11:57:27;;;;;;;3.02;2.25;;;;;;;9.93;47.04;98790.19;1763535;80;25572;-57
2021/03/14 11:59:56;;;;;;;5.35;2.45;;;;;;;9.87;48.06;98789.64;1791055;79;25604;-57
2021/03/14 12:02:23;;;;;;;4.37;2.25;;;;;;;10.04;46.67;98778.56;1790624;80;25580;-56
2021/03/14 12:04:51;;;;;;;6.87;2.70;;;;;;;9.95;47.74;98790.08;1791158;80;25454;-57
2021/03/14 12:07:17;;;;;;;4.45;1.95;;;;;;;9.78;47.67;98780.89;1790800;80;25749;-57
2021/03/14 12:09:44;;;;;;;4.05;1.62;;;;;;;9.67;47.26;98778.66;1790738;80;25614;-56
2021/03/14 12:12:11;;;;;;;3.33;1.60;;;;;;;9.43;46.80;98780.82;1790919;80;25585;-55
2021/03/14 12:14:40;;;;;;;4.10;1.82;;;;;;;9.24;47.84;98776.53;1790564;80;25671;-56
2021/03/14 12:17:06;;;;;;;3.70;1.70;;;;;;;9.16;48.32;98784.97;1787088;80;26112;-56
2021/03/14 12:19:34;;;;;;;6.40;2.70;;;;;;;9.19;47.82;98789.67;1780198;80;26238;-57
2021/03/14 12:22:01;;;;;;;5.00;1.72;;;;;;;9.47;48.30;98789.80;1778351;79;25559;-57
2021/03/14 12:24:28;;;;;;;4.03;2.37;;;;;;;9.85;47.70;98794.60;1780783;80;25529;-57
2021/03/14 12:26:54;;;;;;;5.37;2.60;;;;;;;10.03;47.60;98799.97;1790814;79;25577;-57
2021/03/14 12:29:21;;;;;;;4.85;2.27;;;;;;;9.87;46.23;98811.25;1790634;80;25521;-57
2021/03/14 12:31:48;;;;;;;3.85;2.00;;;;;;;9.56;46.43;98793.73;1795496;79;25788;-55
2021/03/14 12:34:14;;;;;;;6.33;2.67;;;;;;;9.33;46.94;98794.19;1795136;79;25540;-54
2021/03/14 12:36:40;;;;;;;4.53;2.33;;;;;;;9.15;47.71;98802.27;1772648;79;25850;-58
2021/03/14 12:39:08;;;;;;;5.40;2.35;;;;;;;8.99;48.26;98794.05;1783740;79;26220;-57
2021/03/14 12:41:34;;;;;;;4.95;2.47;;;;;;;8.85;48.74;98811.86;1778376;80;25607;-55
2021/03/14 12:44:01;;;;;;;4.87;2.65;;;;;;;8.73;49.28;98801.05;1768728;80;25929;-58
2021/03/14 12:46:28;;;;;;;4.12;2.58;;;;;;;8.64;49.35;98802.48;1797921;79;25565;-57
2021/03/14 12:48:54;;;;;;;4.35;2.72;;;;;;;8.54;49.83;98800.98;1780622;79;25600;-53
2021/03/14 12:51:21;;;;;;;4.62;2.92;;;;;;;8.51;50.41;98800.86;1792535;78;25582;-56
2021/03/14 12:53:47;;;;;;;6.85;3.30;;;;;;;8.50;50.80;98809.52;1784474;79;25657;-57
2021/03/14 12:56:13;;;;;;;5.33;3.33;;;;;;;8.48;50.71;98823.89;1795319;79;25716;-56
2021/03/14 12:58:40;;;;;;;5.62;3.77;;;;;;;8.43;50.90;98818.70;1797310;79;25499;-55
2021/03/14 13:01:06;;;;;;;3.25;2.30;;;;;;;8.35;51.20;98820.30;1797834;79;25591;-55
2021/03/14 13:06:29;;;;;;;5.10;3.30;;;;;;;8.07;51.98;98841.61;1706251;79;26821;-55
2021/03/14 13:08:56;;;;;;;5.72;3.65;;;;;;;7.94;53.12;98848.02;1708511;83;25761;-55
2021/03/14 13:11:22;;;;;;;6.15;4.40;;;;;;;7.83;54.46;98859.70;1717647;83;25371;-54
2021/03/14 13:13:49;;;;;;;5.08;3.92;;;;;;;7.69;54.96;98860.50;1718153;83;25430;-57
2021/03/14 13:16:16;;;;;;;8.50;3.80;;;;;;;7.59;56.00;98858.96;1718256;83;25545;-57
2021/03/14 13:18:43;;;;;;;4.10;3.45;;;;;;;7.53;56.44;98863.74;1728436;83;25605;-58
2021/03/14 13:21:11;;;;;;;10.28;4.30;;;;;;;7.48;56.56;98857.98;1728079;83;25714;-58
2021/03/14 13:23:39;;;;;;;6.90;4.47;;;;;;;7.43;57.26;98857.37;1728312;82;25584;-55
2021/03/14 13:28:41;;;;;;;5.62;3.20;;;;;;;7.34;57.97;98866.02;1757357;76;26543;-56
2021/03/14 13:31:08;;;;;;;4.97;3.52;;;;;;;7.28;58.03;98869.45;1734988;81;25358;-56
2021/03/14 13:33:34;;;;;;;5.33;3.58;;;;;;;7.19;57.87;98872.73;1756829;81;28161;-58
2021/03/14 13:36:01;;;;;;;6.55;3.60;;;;;;;7.11;58.33;98875.09;1765257;81;25515;-55
2021/03/14 13:38:28;;;;;;;4.37;3.30;;;;;;;7.05;59.06;98885.80;1765514;81;25537;-55
2021/03/14 13:40:55;;;;;;;5.72;3.70;;;;;;;6.99;60.00;98890.32;1751656;79;26412;-55
2021/03/14 13:43:22;;;;;;;3.77;3.30;;;;;;;6.94;60.23;98894.52;1682006;84;25564;-57
2021/03/14 13:45:48;;;;;;;5.00;3.95;;;;;;;6.88;60.53;98892.56;1686654;84;25781;-57
2021/03/14 13:48:15;;;;;;;5.35;3.85;;;;;;;6.88;61.06;98890.66;1706970;83;25291;-57
2021/03/14 13:50:42;;;;;;;5.65;4.03;;;;;;;6.89;61.06;98894.13;1715541;83;25238;-58
2021/03/14 13:53:10;;;;;;;6.62;4.05;;;;;;;6.88;61.60;98893.34;1715386;83;25638;-58
2021/03/14 13:55:36;;;;;;;7.08;4.40;;;;;;;6.79;61.87;98900.61;1714804;83;25563;-56
2021/03/14 13:58:03;;;;;;;9.58;4.60;;;;;;;6.72;62.74;98905.14;1715447;83;28090;-56
2021/03/14 14:00:30;;;;;;;6.92;4.80;;;;;;;6.64;63.26;98907.27;1715531;83;25627;-56
2021/03/14 14:02:59;;;;;;;4.67;3.33;;;;;;;6.55;62.70;98919.89;1715257;83;25659;-57
2021/03/14 14:05:25;;;;;;;5.08;3.80;;;;;;;6.47;63.06;98905.90;1715466;83;26110;-56
2021/03/14 14:07:51;;;;;;;6.15;3.75;;;;;;;6.35;63.92;98907.86;1713756;83;25660;-58
2021/03/14 14:10:20;;;;;;;5.75;3.60;;;;;;;6.26;63.88;98915.12;1727996;82;25810;-58
2021/03/14 14:12:47;;;;;;;4.53;3.65;;;;;;;6.20;64.80;98911.81;1685695;85;25764;-59
2021/03/14 14:15:14;;;;;;;6.05;3.58;;;;;;;6.15;65.34;98902.56;1686767;84;25589;-58
2021/03/14 14:17:41;;;;;;;4.17;3.40;;;;;;;6.14;64.72;98909.80;1686763;84;25597;-55
2021/03/14 14:20:09;;;;;;;4.83;3.10;;;;;;;6.13;64.84;98910.92;1685647;85;25615;-58
2021/03/14 14:22:37;;;;;;;4.22;3.12;;;;;;;6.14;65.29;98917.08;1684939;85;26818;-58
2021/03/14 14:25:07;;;;;;;5.97;4.00;;;;;;;6.16;65.75;98908.16;1712771;82;25641;-58
2021/03/14 14:27:34;;;;;;;4.87;4.12;;;;;;;6.20;65.54;98916.38;1714179;82;25402;-58
2021/03/14 14:30:02;;;;;;;6.55;4.53;;;;;;;6.21;66.03;98921.43;1714740;82;25568;-56
2021/03/14 14:32:29;;;;;;;6.95;5.00;;;;;;;6.23;66.19;98920.59;1714728;83;25509;-57
2021/03/14 14:34:56;;;;;;;8.05;5.20;;;;;;;6.26;65.77;98919.94;1715388;82;26888;-58
2021/03/14 14:37:23;;;;;;;7.05;4.80;;;;;;;6.35;66.66;98923.98;1714608;82;25680;-60
2021/03/14 14:39:50;;;;;;;6.72;4.87;;;;;;;6.35;66.00;98915.39;1714476;82;25509;-58
2021/03/14 14:42:17;;;;;;;10.50;5.25;;;;;;;6.33;65.70;98924.31;1711226;82;25630;-59
2021/03/14 14:55:38;;;;;;;6.53;4.75;;;;;;;6.40;65.35;98935.13;1734538;80;26148;-56
2021/03/14 14:58:04;;;;;;;5.15;4.55;;;;;;;6.44;65.61;98938.23;1706266;84;25317;-57
2021/03/14 15:00:31;;;;;;;4.92;4.40;;;;;;;6.47;65.26;98933.57;1705835;82;25601;-58
2021/03/14 15:02:57;;;;;;;6.05;4.72;;;;;;;6.51;65.08;98945.26;1679720;84;25799;-58
2021/03/14 15:05:23;;;;;;;7.85;4.87;;;;;;;6.51;64.99;98948.50;1673943;85;25562;-58
2021/03/14 15:07:50;;;;;;;6.45;4.70;;;;;;;6.49;64.85;98938.07;1694902;82;25918;-57
2021/03/14 15:10:16;;;;;;;6.53;5.20;;;;;;;6.49;64.78;98942.66;1707131;82;25543;-58
2021/03/14 15:12:43;;;;;;;6.12;4.40;;;;;;;6.50;64.95;98945.57;1706061;82;25286;-58
2021/03/14 15:15:17;;;;;;;5.92;3.98;;;;;;;6.51;64.62;98951.19;1706553;84;25780;-57
2021/03/14 15:17:45;;;;;;;7.62;5.10;;;;;;;6.50;64.21;98959.00;1705402;84;26274;-58
2021/03/14 15:20:14;;;;;;;4.12;2.98;;;;;;;6.48;64.20;98963.91;1711039;82;25655;-57
2021/03/14 15:22:41;;;;;;;4.85;3.37;;;;;;;6.43;63.56;98983.64;1691346;82;26239;-57
2021/03/14 15:25:10;;;;;;;4.95;3.40;;;;;;;6.40;63.53;98968.70;1687469;84;25691;-57
2021/03/14 15:27:38;;;;;;;6.47;3.67;;;;;;;6.38;63.64;98974.38;1706094;84;25731;-58
2021/03/14 15:30:08;;;;;;;7.05;3.62;;;;;;;6.35;63.64;98977.69;1705995;84;25591;-57
2021/03/14 15:32:35;;;;;;;4.80;3.80;;;;;;;6.34;63.81;98976.91;1681769;84;25670;-58
2021/03/14 15:35:04;;;;;;;4.62;3.75;;;;;;;6.31;63.96;98976.19;1688598;84;25631;-58
2021/03/14 15:37:31;;;;;;;5.87;4.00;;;;;;;6.28;64.35;98984.08;1691568;84;25603;-58
2021/03/14 15:39:57;;;;;;;7.10;4.17;;;;;;;6.26;64.50;98979.58;1719894;83;25820;-58
2021/03/14 15:42:24;;;;;;;4.75;3.40;;;;;;;6.24;64.85;98980.45;1672583;85;25598;-57
2021/03/14 15:44:51;;;;;;;7.33;4.12;;;;;;;6.21;64.86;98979.16;1702958;84;25793;-59
2021/03/14 15:47:18;;;;;;;5.25;4.17;;;;;;;6.18;65.03;98977.13;1703265;84;25779;-58
2021/03/14 15:49:44;;;;;;;6.67;4.90;;;;;;;6.17;65.50;98989.73;1722016;83;25658;-58
2021/03/14 15:52:11;;;;;;;6.45;4.30;;;;;;;6.12;65.52;98988.53;1697469;83;25826;-57
2021/03/14 15:54:38;;;;;;;4.33;3.92;;;;;;;6.09;65.87;98989.70;1721983;82;25576;-58
2021/03/14 15:57:06;;;;;;;7.47;4.37;;;;;;;6.06;65.73;98991.66;1703262;83;25534;-58
2021/03/14 15:59:34;;;;;;;7.85;4.72;;;;;;;6.04;65.60;98996.56;1703469;84;25554;-57
2021/03/14 16:02:00;;;;;;;7.45;4.72;;;;;;;6.02;66.28;98998.77;1703164;84;25477;-58
2021/03/14 16:04:27;;;;;;;8.60;4.45;;;;;;;5.99;66.23;99010.90;1703493;84;25791;-57
2021/03/14 16:06:54;;;;;;;8.88;4.95;;;;;;;5.97;66.15;99008.52;1695872;83;25694;-59
2021/03/14 16:09:20;;;;;;;7.53;4.70;;;;;;;5.97;66.12;99017.14;1703225;84;25362;-58
2021/03/14 16:11:47;;;;;;;7.12;4.58;;;;;;;5.95;66.22;99024.13;1703252;84;25492;-57
2021/03/14 16:14:13;;;;;;;7.12;5.05;;;;;;;5.95;66.77;99032.17;1703271;84;25606;-59
2021/03/14 16:16:40;;;;;;;7.40;5.10;;;;;;;5.93;66.75;99030.91;1724154;83;25719;-58
2021/03/14 16:19:07;;;;;;;6.83;4.35;;;;;;;5.92;66.74;99033.34;1705976;84;25415;-59
2021/03/14 16:21:34;;;;;;;7.45;4.75;;;;;;;5.89;67.48;99037.98;1726386;83;25593;-58
2021/03/14 16:24:00;;;;;;;6.33;4.47;;;;;;;5.84;67.52;99046.97;1726220;83;25285;-59
2021/03/14 16:26:27;;;;;;;7.72;4.90;;;;;;;5.79;68.16;99047.11;1725570;83;25296;-61
2021/03/14 16:28:54;;;;;;;6.67;5.20;;;;;;;5.72;68.16;99043.52;1725006;83;25823;-58
2021/03/14 16:31:22;;;;;;;6.60;5.00;;;;;;;5.67;68.53;99039.61;1726057;83;25640;-57
2021/03/14 16:33:48;;;;;;;7.00;4.50;;;;;;;5.63;69.10;99049.36;1725164;82;25652;-56
2021/03/14 16:36:16;;;;;;;6.65;4.17;;;;;;;5.59;69.06;99051.08;1725830;82;25452;-57
2021/03/14 16:38:42;;;;;;;6.15;4.65;;;;;;;5.58;68.83;99054.84;1725148;82;25503;-57
2021/03/14 16:41:09;;;;;;;5.25;4.30;;;;;;;5.55;68.30;99052.77;1726444;82;25814;-57
2021/03/14 16:43:36;;;;;;;6.83;4.83;;;;;;;5.56;68.28;99057.83;1725444;83;26453;-58
2021/03/14 16:46:04;;;;;;;8.43;4.90;;;;;;;5.55;68.04;99053.59;1722461;83;25481;-59
2021/03/14 16:48:31;;;;;;;8.93;5.95;;;;;;;5.56;67.84;99050.34;1724917;82;25471;-58
2021/03/14 16:50:58;;;;;;;7.83;6.03;;;;;;;5.56;67.58;99059.17;1724939;83;25437;-59
2021/03/14 16:53:25;;;;;;;8.13;5.05;;;;;;;5.52;67.55;99059.55;1724674;83;25811;-58
2021/03/14 16:55:52;;;;;;;7.90;5.62;;;;;;;5.48;67.56;99060.45;1723619;82;25554;-58
2021/03/14 16:58:19;;;;;;;7.00;4.75;;;;;;;5.45;67.40;99063.22;1718633;83;25520;-57
2021/03/14 17:00:46;;;;;;;5.60;4.45;;;;;;;5.38;67.46;99065.50;1717021;83;25481;-57
2021/03/14 17:03:13;;;;;;;5.72;4.58;;;;;;;5.34;67.40;99065.88;1717686;83;25748;-59
2021/03/14 17:05:40;;;;;;;5.85;4.92;;;;;;;5.30;67.58;99067.04;1718662;83;25783;-59
2021/03/14 17:08:07;;;;;;;4.95;4.45;;;;;;;5.26;67.95;99078.14;1718394;83;25329;-57
2021/03/14 17:10:35;;;;;;;7.70;5.60;;;;;;;5.23;67.83;99083.55;1718652;83;25454;-54
2021/03/14 17:13:02;;;;;;;8.25;5.75;;;;;;;5.19;67.99;99089.28;1718625;83;25515;-58
2021/03/14 17:15:29;;;;;;;7.25;5.37;;;;;;;5.16;68.11;99092.55;1718538;83;25460;-58
2021/03/14 17:17:56;;;;;;;7.47;5.30;;;;;;;5.15;68.55;99096.32;1718645;83;26162;-56
2021/03/14 17:20:23;;;;;;;10.68;6.03;;;;;;;5.12;68.35;99104.17;1718496;83;25758;-59
2021/03/14 17:22:50;;;;;;;7.85;5.60;;;;;;;5.11;68.90;99106.59;1718495;83;25484;-59
2021/03/14 17:25:16;;;;;;;7.83;5.72;;;;;;;5.09;68.68;99110.13;1717147;83;25438;-59
2021/03/14 17:27:43;;;;;;;10.38;6.28;;;;;;;5.06;69.05;99106.18;1715670;83;25614;-59
2021/03/14 17:30:11;;;;;;;8.70;6.10;;;;;;;5.03;69.24;99106.78;1716638;83;25816;-56
2021/03/14 17:32:38;;;;;;;9.53;6.83;;;;;;;5.03;69.07;99105.44;1708898;82;25580;-59
2021/03/14 17:35:07;;;;;;;7.47;5.65;;;;;;;5.01;69.48;99104.95;1711346;83;25585;-59
2021/03/14 17:37:33;;;;;;;8.25;6.42;;;;;;;5.00;69.79;99116.20;1718335;83;25639;-57
2021/03/14 17:40:00;;;;;;;10.00;6.33;;;;;;;5.00;69.82;99112.17;1718411;83;25584;-57
2021/03/14 17:42:27;;;;;;;10.50;7.42;;;;;;;4.99;69.98;99121.33;1718312;83;25840;-58
2021/03/14 17:44:53;;;;;;;12.00;7.40;;;;;;;4.97;69.88;99118.16;1717904;83;25520;-57
2021/03/14 17:47:20;;;;;;;14.23;8.60;;;;;;;4.95;70.12;99120.88;1718280;83;25523;-58
2021/03/14 17:49:47;;;;;;;11.97;7.78;;;;;;;4.93;70.21;99133.23;1718063;83;25581;-58
2021/03/14 17:52:13;;;;;;;11.05;7.12;;;;;;;4.92;70.75;99137.02;1717939;83;25686;-58
2021/03/14 17:54:40;;;;;;;12.85;7.62;;;;;;;4.91;70.09;99137.32;1718254;83;25720;-58
2021/03/14 17:57:08;;;;;;;13.03;8.28;;;;;;;4.86;70.60;99128.27;1722845;83;25716;-58
2021/03/14 17:59:34;;;;;;;10.98;8.35;;;;;;;4.86;70.64;99139.55;1725804;83;25318;-59
2021/03/14 18:02:02;;;;;;;14.33;8.58;;;;;;;4.84;70.87;99135.83;1726014;82;25538;-58
2021/03/14 18:04:30;;;;;;;14.68;8.80;;;;;;;4.84;70.73;99141.73;1726070;83;25291;-61
2021/03/14 18:06:56;;;;;;;13.45;8.75;;;;;;;4.80;70.90;99144.22;1725837;83;25731;-58
2021/03/14 18:09:23;;;;;;;14.23;8.80;;;;;;;4.78;71.15;99153.64;1725991;82;25308;-59
2021/03/14 18:11:49;;;;;;;13.65;9.00;;;;;;;4.74;70.76;99160.14;1726052;82;25567;-59
2021/03/14 18:14:15;;;;;;;13.13;9.20;;;;;;;4.71;70.77;99157.27;1725761;83;25535;-59
2021/03/14 18:16:42;;;;;;;16.62;9.60;;;;;;;4.66;70.90;99160.83;1726114;82;25529;-59
2021/03/14 18:19:09;;;;;;;16.65;10.05;;;;;;;4.63;71.70;99153.38;1726223;82;25707;-59
2021/03/14 18:21:38;;;;;;;15.58;9.70;;;;;;;4.60;71.29;99162.03;1725868;83;26306;-59
2021/03/14 18:24:07;;;;;;;14.53;9.50;;;;;;;4.59;71.49;99162.55;1726044;83;25525;-59
2021/03/14 18:26:36;;;;;;;16.48;10.25;;;;;;;4.58;72.15;99166.86;1721989;83;25645;-59
2021/03/14 18:29:03;;;;;;;17.30;11.03;;;;;;;4.57;72.00;99175.45;1720590;83;25599;-60
2021/03/14 18:31:30;;;;;;;15.75;10.20;;;;;;;4.56;71.70;99181.89;1723472;83;25784;-59
2021/03/14 18:33:56;;;;;;;17.85;10.25;;;;;;;4.56;72.40;99187.24;1725590;83;25667;-59
2021/03/14 18:36:23;;;;;;;17.17;10.43;;;;;;;4.56;72.19;99177.08;1725297;82;25651;-58
2021/03/14 18:38:50;;;;;;;16.27;10.60;;;;;;;4.58;72.43;99178.92;1725611;81;25485;-58
2021/03/14 18:41:16;;;;;;;15.63;9.18;;;;;;;4.59;72.44;99181.30;1725839;83;25635;-59
2021/03/14 18:43:43;;;;;;;18.12;10.75;;;;;;;4.60;72.47;99182.91;1726152;83;25939;-59
2021/03/14 18:46:09;;;;;;;15.20;10.25;;;;;;;4.61;72.47;99179.12;1726370;82;25461;-59
2021/03/14 18:48:36;;;;;;;20.60;10.70;;;;;;;4.63;72.33;99176.14;1726521;83;25518;-59
2021/03/14 18:51:04;;;;;;;14.78;10.05;;;;;;;4.63;72.25;99178.30;1726225;83;25429;-58
2021/03/14 18:53:31;;;;;;;15.48;9.38;;;;;;;4.65;72.62;99172.65;1726590;83;25304;-59
2021/03/14 18:55:58;;;;;;;14.30;9.40;;;;;;;4.66;72.35;99175.55;1726309;83;25858;-59
2021/03/14 18:58:24;;;;;;;15.98;9.78;;;;;;;4.67;72.29;99179.28;1725493;83;25454;-59
2021/03/14 19:00:51;;;;;;;17.32;10.72;;;;;;;4.68;72.34;99171.50;1726275;82;25597;-58
2021/03/14 19:03:17;;;;;;;16.23;10.20;;;;;;;4.70;72.13;99173.08;1726087;83;25580;-58
2021/03/14 19:05:44;;;;;;;17.73;10.53;;;;;;;4.71;72.11;99174.67;1726253;83;25325;-58